sensor_id;sensor_type;location;lat;lon;timestamp;P1;durP1;ratioP1;P2;durP2;ratioP2
76107;SDS011;64834;52.516;10.528;2023-02-28T00:02:24;3.80;;;2.25;;
76107;SDS011;64834;52.516;10.528;2023-02-28T00:04:49;3.72;;;2.53;;
76107;SDS011;64834;52.516;10.528;2023-02-28T00:07:18;4.43;;;2.55;;
76107;SDS011;64834;52.516;10.528;2023-02-28T00:09:43;4.30;;;2.17;;
76107;SDS011;64834;52.516;10.528;2023-02-28T00:12:08;4.22;;;2.10;;
76107;SDS011;64834;52.516;10.528;2023-02-28T00:14:35;5.28;;;2.25;;
76107;SDS011;64834;52.516;10.528;2023-02-28T00:17:01;5.30;;;2.65;;
76107;SDS011;64834;52.516;10.528;2023-02-28T00:19:26;5.55;;;3.13;;
76107;SDS011;64834;52.516;10.528;2023-02-28T00:21:51;5.47;;;2.83;;
76107;SDS011;64834;52.516;10.528;2023-02-28T00:24:17;6.05;;;2.22;;
76107;SDS011;64834;52.516;10.528;2023-02-28T00:26:42;5.70;;;3.15;;
76107;SDS011;64834;52.516;10.528;2023-02-28T00:29:07;6.97;;;3.38;;
76107;SDS011;64834;52.516;10.528;2023-02-28T00:31:33;7.07;;;3.65;;
76107;SDS011;64834;52.516;10.528;2023-02-28T00:33:58;6.75;;;3.67;;
76107;SDS011;64834;52.516;10.528;2023-02-28T00:36:23;5.88;;;3.00;;
76107;SDS011;64834;52.516;10.528;2023-02-28T00:38:49;5.15;;;2.63;;
76107;SDS011;64834;52.516;10.528;2023-02-28T00:41:14;5.63;;;2.85;;
76107;SDS011;64834;52.516;10.528;2023-02-28T00:43:40;7.28;;;3.33;;
76107;SDS011;64834;52.516;10.528;2023-02-28T00:46:05;7.47;;;3.88;;
76107;SDS011;64834;52.516;10.528;2023-02-28T00:48:31;4.75;;;2.83;;
76107;SDS011;64834;52.516;10.528;2023-02-28T00:50:57;6.88;;;3.78;;
76107;SDS011;64834;52.516;10.528;2023-02-28T00:53:22;9.00;;;4.13;;
76107;SDS011;64834;52.516;10.528;2023-02-28T00:55:48;6.68;;;4.07;;
76107;SDS011;64834;52.516;10.528;2023-02-28T00:58:14;5.38;;;3.42;;
76107;SDS011;64834;52.516;10.528;2023-02-28T01:00:39;8.70;;;4.60;;
76107;SDS011;64834;52.516;10.528;2023-02-28T01:03:05;8.50;;;4.68;;
76107;SDS011;64834;52.516;10.528;2023-02-28T01:05:30;8.43;;;4.80;;
76107;SDS011;64834;52.516;10.528;2023-02-28T01:07:55;6.90;;;4.18;;
76107;SDS011;64834;52.516;10.528;2023-02-28T01:10:21;8.23;;;4.90;;
76107;SDS011;64834;52.516;10.528;2023-02-28T01:12:46;9.65;;;4.72;;
76107;SDS011;64834;52.516;10.528;2023-02-28T01:15:11;10.23;;;5.05;;
76107;SDS011;64834;52.516;10.528;2023-02-28T01:17:37;11.57;;;4.90;;
76107;SDS011;64834;52.516;10.528;2023-02-28T01:20:02;7.80;;;4.30;;
76107;SDS011;64834;52.516;10.528;2023-02-28T01:22:28;8.20;;;4.20;;
76107;SDS011;64834;52.516;10.528;2023-02-28T01:24:53;7.45;;;4.10;;
76107;SDS011;64834;52.516;10.528;2023-02-28T01:27:19;7.43;;;3.67;;
76107;SDS011;64834;52.516;10.528;2023-02-28T01:29:44;8.80;;;3.83;;
76107;SDS011;64834;52.516;10.528;2023-02-28T01:32:10;8.30;;;3.88;;
76107;SDS011;64834;52.516;10.528;2023-02-28T01:34:35;8.40;;;3.90;;
76107;SDS011;64834;52.516;10.528;2023-02-28T01:37:00;7.22;;;3.92;;
76107;SDS011;64834;52.516;10.528;2023-02-28T01:39:26;6.75;;;3.00;;
76107;SDS011;64834;52.516;10.528;2023-02-28T01:41:51;6.90;;;3.20;;
76107;SDS011;64834;52.516;10.528;2023-02-28T01:47:20;6.32;;;3.60;;
76107;SDS011;64834;52.516;10.528;2023-02-28T01:49:46;5.50;;;2.72;;
76107;SDS011;64834;52.516;10.528;2023-02-28T01:52:13;4.70;;;2.63;;
76107;SDS011;64834;52.516;10.528;2023-02-28T01:54:43;4.93;;;2.83;;
76107;SDS011;64834;52.516;10.528;2023-02-28T01:57:16;7.43;;;3.33;;
76107;SDS011;64834;52.516;10.528;2023-02-28T01:59:48;6.25;;;3.05;;
76107;SDS011;64834;52.516;10.528;2023-02-28T02:02:20;7.25;;;3.63;;
76107;SDS011;64834;52.516;10.528;2023-02-28T02:07:19;6.13;;;3.42;;
76107;SDS011;64834;52.516;10.528;2023-02-28T02:09:45;7.50;;;3.97;;
76107;SDS011;64834;52.516;10.528;2023-02-28T02:12:14;5.82;;;3.50;;
76107;SDS011;64834;52.516;10.528;2023-02-28T02:17:42;5.80;;;3.38;;
76107;SDS011;64834;52.516;10.528;2023-02-28T02:23:29;5.68;;;2.97;;
76107;SDS011;64834;52.516;10.528;2023-02-28T02:26:26;6.32;;;2.90;;
76107;SDS011;64834;52.516;10.528;2023-02-28T02:32:02;5.03;;;3.05;;
76107;SDS011;64834;52.516;10.528;2023-02-28T02:37:16;6.50;;;3.58;;
76107;SDS011;64834;52.516;10.528;2023-02-28T02:45:51;6.47;;;3.13;;
76107;SDS011;64834;52.516;10.528;2023-02-28T02:48:01;6.28;;;3.58;;
76107;SDS011;64834;52.516;10.528;2023-02-28T02:50:33;7.28;;;3.65;;
76107;SDS011;64834;52.516;10.528;2023-02-28T02:53:03;8.30;;;4.05;;
76107;SDS011;64834;52.516;10.528;2023-02-28T02:58:00;6.28;;;3.65;;
76107;SDS011;64834;52.516;10.528;2023-02-28T03:00:39;8.25;;;4.15;;
76107;SDS011;64834;52.516;10.528;2023-02-28T03:03:08;6.47;;;3.78;;
76107;SDS011;64834;52.516;10.528;2023-02-28T03:05:41;6.55;;;3.92;;
76107;SDS011;64834;52.516;10.528;2023-02-28T03:08:10;10.35;;;5.30;;
76107;SDS011;64834;52.516;10.528;2023-02-28T03:10:40;8.45;;;4.43;;
76107;SDS011;64834;52.516;10.528;2023-02-28T03:16:15;8.80;;;4.38;;
76107;SDS011;64834;52.516;10.528;2023-02-28T03:21:27;13.45;;;5.22;;
76107;SDS011;64834;52.516;10.528;2023-02-28T03:24:04;16.27;;;7.18;;
76107;SDS011;64834;52.516;10.528;2023-02-28T03:26:36;18.27;;;8.82;;
76107;SDS011;64834;52.516;10.528;2023-02-28T03:29:13;15.88;;;7.25;;
76107;SDS011;64834;52.516;10.528;2023-02-28T03:31:48;13.48;;;6.90;;
76107;SDS011;64834;52.516;10.528;2023-02-28T03:34:19;7.55;;;5.13;;
76107;SDS011;64834;52.516;10.528;2023-02-28T03:36:52;9.52;;;5.07;;
76107;SDS011;64834;52.516;10.528;2023-02-28T03:39:23;9.45;;;4.22;;
76107;SDS011;64834;52.516;10.528;2023-02-28T03:41:56;7.40;;;4.10;;
76107;SDS011;64834;52.516;10.528;2023-02-28T03:44:30;7.50;;;3.65;;
76107;SDS011;64834;52.516;10.528;2023-02-28T03:47:00;10.45;;;3.75;;
76107;SDS011;64834;52.516;10.528;2023-02-28T03:49:39;8.70;;;3.50;;
76107;SDS011;64834;52.516;10.528;2023-02-28T03:52:10;5.85;;;3.17;;
76107;SDS011;64834;52.516;10.528;2023-02-28T03:54:38;5.65;;;3.30;;
76107;SDS011;64834;52.516;10.528;2023-02-28T03:57:13;6.93;;;2.80;;
76107;SDS011;64834;52.516;10.528;2023-02-28T03:59:58;6.05;;;3.03;;
76107;SDS011;64834;52.516;10.528;2023-02-28T04:02:28;5.15;;;3.20;;
76107;SDS011;64834;52.516;10.528;2023-02-28T04:04:54;7.82;;;3.10;;
76107;SDS011;64834;52.516;10.528;2023-02-28T04:07:19;6.38;;;3.42;;
76107;SDS011;64834;52.516;10.528;2023-02-28T04:09:44;9.75;;;3.20;;
76107;SDS011;64834;52.516;10.528;2023-02-28T04:12:10;7.50;;;2.95;;
76107;SDS011;64834;52.516;10.528;2023-02-28T04:14:35;4.75;;;2.90;;
76107;SDS011;64834;52.516;10.528;2023-02-28T04:17:01;6.03;;;3.25;;
76107;SDS011;64834;52.516;10.528;2023-02-28T04:19:26;6.90;;;3.10;;
76107;SDS011;64834;52.516;10.528;2023-02-28T04:21:52;5.50;;;3.28;;
76107;SDS011;64834;52.516;10.528;2023-02-28T04:24:20;6.18;;;3.53;;
76107;SDS011;64834;52.516;10.528;2023-02-28T04:26:47;6.82;;;3.20;;
76107;SDS011;64834;52.516;10.528;2023-02-28T04:29:18;7.35;;;3.60;;
76107;SDS011;64834;52.516;10.528;2023-02-28T04:31:45;6.78;;;3.03;;
76107;SDS011;64834;52.516;10.528;2023-02-28T04:34:11;7.15;;;3.53;;
76107;SDS011;64834;52.516;10.528;2023-02-28T04:36:36;6.93;;;3.13;;
76107;SDS011;64834;52.516;10.528;2023-02-28T04:39:02;6.38;;;3.15;;
76107;SDS011;64834;52.516;10.528;2023-02-28T04:41:28;5.95;;;3.28;;
76107;SDS011;64834;52.516;10.528;2023-02-28T04:43:54;5.60;;;3.25;;
76107;SDS011;64834;52.516;10.528;2023-02-28T04:46:20;5.28;;;2.97;;
76107;SDS011;64834;52.516;10.528;2023-02-28T04:48:46;4.45;;;3.08;;
76107;SDS011;64834;52.516;10.528;2023-02-28T04:51:14;6.13;;;3.67;;
76107;SDS011;64834;52.516;10.528;2023-02-28T04:53:41;5.53;;;3.50;;
76107;SDS011;64834;52.516;10.528;2023-02-28T04:56:07;6.35;;;3.42;;
76107;SDS011;64834;52.516;10.528;2023-02-28T04:58:36;7.22;;;3.40;;
76107;SDS011;64834;52.516;10.528;2023-02-28T05:01:02;5.80;;;3.33;;
76107;SDS011;64834;52.516;10.528;2023-02-28T05:03:29;9.70;;;3.90;;
76107;SDS011;64834;52.516;10.528;2023-02-28T05:05:54;7.03;;;3.20;;
76107;SDS011;64834;52.516;10.528;2023-02-28T05:08:19;6.45;;;3.60;;
76107;SDS011;64834;52.516;10.528;2023-02-28T05:10:45;5.05;;;2.88;;
76107;SDS011;64834;52.516;10.528;2023-02-28T05:13:13;6.90;;;3.50;;
76107;SDS011;64834;52.516;10.528;2023-02-28T05:15:38;6.75;;;3.25;;
76107;SDS011;64834;52.516;10.528;2023-02-28T05:18:04;5.45;;;2.97;;
76107;SDS011;64834;52.516;10.528;2023-02-28T05:20:29;7.20;;;3.47;;
76107;SDS011;64834;52.516;10.528;2023-02-28T05:22:55;6.05;;;3.10;;
76107;SDS011;64834;52.516;10.528;2023-02-28T05:25:28;5.47;;;3.55;;
76107;SDS011;64834;52.516;10.528;2023-02-28T05:27:53;7.00;;;4.10;;
76107;SDS011;64834;52.516;10.528;2023-02-28T05:30:18;9.23;;;3.95;;
76107;SDS011;64834;52.516;10.528;2023-02-28T05:32:48;8.23;;;4.07;;
76107;SDS011;64834;52.516;10.528;2023-02-28T05:35:15;8.63;;;4.10;;
76107;SDS011;64834;52.516;10.528;2023-02-28T05:37:41;9.15;;;3.92;;
76107;SDS011;64834;52.516;10.528;2023-02-28T05:40:06;9.60;;;5.43;;
76107;SDS011;64834;52.516;10.528;2023-02-28T05:42:35;9.73;;;4.78;;
76107;SDS011;64834;52.516;10.528;2023-02-28T05:45:00;10.57;;;4.70;;
76107;SDS011;64834;52.516;10.528;2023-02-28T05:47:26;8.10;;;4.30;;
76107;SDS011;64834;52.516;10.528;2023-02-28T05:49:51;6.82;;;3.35;;
76107;SDS011;64834;52.516;10.528;2023-02-28T05:52:16;8.38;;;4.70;;
76107;SDS011;64834;52.516;10.528;2023-02-28T05:54:42;9.35;;;4.63;;
76107;SDS011;64834;52.516;10.528;2023-02-28T05:57:07;8.48;;;4.75;;
76107;SDS011;64834;52.516;10.528;2023-02-28T05:59:32;7.78;;;4.80;;
76107;SDS011;64834;52.516;10.528;2023-02-28T06:01:58;9.65;;;4.88;;
76107;SDS011;64834;52.516;10.528;2023-02-28T06:04:23;9.43;;;4.80;;
76107;SDS011;64834;52.516;10.528;2023-02-28T06:06:49;10.30;;;5.28;;
76107;SDS011;64834;52.516;10.528;2023-02-28T06:09:15;11.13;;;6.30;;
76107;SDS011;64834;52.516;10.528;2023-02-28T06:11:41;14.10;;;6.20;;
76107;SDS011;64834;52.516;10.528;2023-02-28T06:14:06;11.25;;;6.35;;
76107;SDS011;64834;52.516;10.528;2023-02-28T06:16:32;8.98;;;5.32;;
76107;SDS011;64834;52.516;10.528;2023-02-28T06:19:00;11.95;;;5.25;;
76107;SDS011;64834;52.516;10.528;2023-02-28T06:21:27;10.05;;;4.43;;
76107;SDS011;64834;52.516;10.528;2023-02-28T06:23:52;9.23;;;4.63;;
76107;SDS011;64834;52.516;10.528;2023-02-28T06:26:18;14.43;;;6.68;;
76107;SDS011;64834;52.516;10.528;2023-02-28T06:28:43;19.17;;;6.68;;
76107;SDS011;64834;52.516;10.528;2023-02-28T06:31:10;9.07;;;5.70;;
76107;SDS011;64834;52.516;10.528;2023-02-28T06:33:37;11.05;;;5.57;;
76107;SDS011;64834;52.516;10.528;2023-02-28T06:36:03;12.18;;;6.25;;
76107;SDS011;64834;52.516;10.528;2023-02-28T06:38:29;11.02;;;6.60;;
76107;SDS011;64834;52.516;10.528;2023-02-28T06:40:56;11.70;;;5.88;;
76107;SDS011;64834;52.516;10.528;2023-02-28T06:43:22;9.50;;;5.72;;
76107;SDS011;64834;52.516;10.528;2023-02-28T06:45:48;13.18;;;6.43;;
76107;SDS011;64834;52.516;10.528;2023-02-28T06:48:14;15.68;;;7.43;;
76107;SDS011;64834;52.516;10.528;2023-02-28T06:50:39;17.77;;;7.97;;
76107;SDS011;64834;52.516;10.528;2023-02-28T06:53:05;13.95;;;7.03;;
76107;SDS011;64834;52.516;10.528;2023-02-28T06:55:30;15.38;;;6.68;;
76107;SDS011;64834;52.516;10.528;2023-02-28T06:57:56;12.50;;;6.15;;
76107;SDS011;64834;52.516;10.528;2023-02-28T07:00:22;16.25;;;7.05;;
76107;SDS011;64834;52.516;10.528;2023-02-28T07:02:47;18.20;;;6.50;;
76107;SDS011;64834;52.516;10.528;2023-02-28T07:05:13;16.38;;;6.70;;
76107;SDS011;64834;52.516;10.528;2023-02-28T07:07:38;11.48;;;5.82;;
76107;SDS011;64834;52.516;10.528;2023-02-28T07:10:05;12.30;;;5.47;;
76107;SDS011;64834;52.516;10.528;2023-02-28T07:12:31;11.95;;;5.68;;
76107;SDS011;64834;52.516;10.528;2023-02-28T07:14:56;8.43;;;5.38;;
76107;SDS011;64834;52.516;10.528;2023-02-28T07:17:22;9.63;;;5.35;;
76107;SDS011;64834;52.516;10.528;2023-02-28T07:19:47;10.80;;;4.70;;
76107;SDS011;64834;52.516;10.528;2023-02-28T07:22:12;10.18;;;5.35;;
76107;SDS011;64834;52.516;10.528;2023-02-28T07:24:38;7.50;;;4.60;;
76107;SDS011;64834;52.516;10.528;2023-02-28T07:27:03;8.70;;;4.00;;
76107;SDS011;64834;52.516;10.528;2023-02-28T07:29:28;8.45;;;3.97;;
76107;SDS011;64834;52.516;10.528;2023-02-28T07:31:54;8.63;;;4.55;;
76107;SDS011;64834;52.516;10.528;2023-02-28T07:34:21;7.45;;;3.63;;
76107;SDS011;64834;52.516;10.528;2023-02-28T07:36:47;6.47;;;3.67;;
76107;SDS011;64834;52.516;10.528;2023-02-28T07:39:12;5.22;;;3.03;;
76107;SDS011;64834;52.516;10.528;2023-02-28T07:41:37;4.57;;;3.13;;
76107;SDS011;64834;52.516;10.528;2023-02-28T07:44:08;5.55;;;3.78;;
76107;SDS011;64834;52.516;10.528;2023-02-28T07:46:34;6.25;;;3.75;;
76107;SDS011;64834;52.516;10.528;2023-02-28T07:49:01;6.07;;;3.55;;
76107;SDS011;64834;52.516;10.528;2023-02-28T07:51:27;7.80;;;4.30;;
76107;SDS011;64834;52.516;10.528;2023-02-28T07:53:53;7.85;;;4.43;;
76107;SDS011;64834;52.516;10.528;2023-02-28T07:56:19;5.97;;;3.50;;
76107;SDS011;64834;52.516;10.528;2023-02-28T07:58:44;9.55;;;4.10;;
76107;SDS011;64834;52.516;10.528;2023-02-28T08:01:10;6.88;;;3.47;;
76107;SDS011;64834;52.516;10.528;2023-02-28T08:03:36;5.93;;;3.20;;
76107;SDS011;64834;52.516;10.528;2023-02-28T08:06:05;6.82;;;3.70;;
76107;SDS011;64834;52.516;10.528;2023-02-28T08:08:32;5.90;;;3.90;;
76107;SDS011;64834;52.516;10.528;2023-02-28T08:10:58;7.47;;;3.53;;
76107;SDS011;64834;52.516;10.528;2023-02-28T08:13:25;7.70;;;4.00;;
76107;SDS011;64834;52.516;10.528;2023-02-28T08:15:52;6.53;;;3.30;;
76107;SDS011;64834;52.516;10.528;2023-02-28T08:18:17;7.15;;;3.65;;
76107;SDS011;64834;52.516;10.528;2023-02-28T08:20:42;6.70;;;3.63;;
76107;SDS011;64834;52.516;10.528;2023-02-28T08:23:08;5.88;;;3.33;;
76107;SDS011;64834;52.516;10.528;2023-02-28T08:25:33;5.65;;;3.25;;
76107;SDS011;64834;52.516;10.528;2023-02-28T08:27:58;8.90;;;3.53;;
76107;SDS011;64834;52.516;10.528;2023-02-28T08:30:24;5.28;;;2.67;;
76107;SDS011;64834;52.516;10.528;2023-02-28T08:32:49;7.40;;;3.28;;
76107;SDS011;64834;52.516;10.528;2023-02-28T08:35:15;4.40;;;3.15;;
76107;SDS011;64834;52.516;10.528;2023-02-28T08:37:41;5.38;;;2.78;;
76107;SDS011;64834;52.516;10.528;2023-02-28T08:40:06;7.28;;;3.15;;
76107;SDS011;64834;52.516;10.528;2023-02-28T08:42:32;7.60;;;3.58;;
76107;SDS011;64834;52.516;10.528;2023-02-28T08:44:58;7.50;;;3.17;;
76107;SDS011;64834;52.516;10.528;2023-02-28T08:47:23;6.03;;;3.47;;
76107;SDS011;64834;52.516;10.528;2023-02-28T08:49:48;4.97;;;3.05;;
76107;SDS011;64834;52.516;10.528;2023-02-28T08:52:13;5.72;;;3.08;;
76107;SDS011;64834;52.516;10.528;2023-02-28T08:54:39;4.85;;;3.47;;
76107;SDS011;64834;52.516;10.528;2023-02-28T08:57:04;4.30;;;2.30;;
76107;SDS011;64834;52.516;10.528;2023-02-28T08:59:30;5.25;;;3.00;;
76107;SDS011;64834;52.516;10.528;2023-02-28T09:01:55;3.30;;;2.15;;
76107;SDS011;64834;52.516;10.528;2023-02-28T09:04:21;4.22;;;2.65;;
76107;SDS011;64834;52.516;10.528;2023-02-28T09:06:47;4.07;;;2.55;;
76107;SDS011;64834;52.516;10.528;2023-02-28T09:09:13;4.50;;;2.40;;
76107;SDS011;64834;52.516;10.528;2023-02-28T09:11:38;3.97;;;2.08;;
76107;SDS011;64834;52.516;10.528;2023-02-28T09:14:04;3.30;;;2.13;;
76107;SDS011;64834;52.516;10.528;2023-02-28T09:16:30;3.85;;;2.40;;
76107;SDS011;64834;52.516;10.528;2023-02-28T09:18:56;3.90;;;2.55;;
76107;SDS011;64834;52.516;10.528;2023-02-28T09:21:22;3.58;;;2.03;;
76107;SDS011;64834;52.516;10.528;2023-02-28T09:23:48;3.33;;;2.30;;
76107;SDS011;64834;52.516;10.528;2023-02-28T09:26:16;3.22;;;2.08;;
76107;SDS011;64834;52.516;10.528;2023-02-28T09:28:42;4.13;;;2.08;;
76107;SDS011;64834;52.516;10.528;2023-02-28T09:31:15;5.05;;;2.40;;
76107;SDS011;64834;52.516;10.528;2023-02-28T09:33:45;3.40;;;1.98;;
76107;SDS011;64834;52.516;10.528;2023-02-28T09:36:10;4.93;;;2.83;;
76107;SDS011;64834;52.516;10.528;2023-02-28T09:38:36;4.70;;;2.67;;
76107;SDS011;64834;52.516;10.528;2023-02-28T09:41:02;5.05;;;2.13;;
76107;SDS011;64834;52.516;10.528;2023-02-28T09:43:35;4.95;;;1.77;;
76107;SDS011;64834;52.516;10.528;2023-02-28T09:46:19;4.07;;;1.95;;
76107;SDS011;64834;52.516;10.528;2023-02-28T09:48:54;4.47;;;1.98;;
76107;SDS011;64834;52.516;10.528;2023-02-28T09:53:53;2.28;;;1.40;;
76107;SDS011;64834;52.516;10.528;2023-02-28T09:56:23;3.10;;;1.13;;
76107;SDS011;64834;52.516;10.528;2023-02-28T09:58:57;2.35;;;1.02;;
76107;SDS011;64834;52.516;10.528;2023-02-28T10:06:52;2.30;;;0.75;;
76107;SDS011;64834;52.516;10.528;2023-02-28T10:09:19;2.70;;;1.40;;
76107;SDS011;64834;52.516;10.528;2023-02-28T10:11:50;2.72;;;1.10;;
76107;SDS011;64834;52.516;10.528;2023-02-28T10:14:18;2.08;;;1.10;;
76107;SDS011;64834;52.516;10.528;2023-02-28T10:16:48;3.97;;;1.00;;
76107;SDS011;64834;52.516;10.528;2023-02-28T10:19:25;2.53;;;0.90;;
76107;SDS011;64834;52.516;10.528;2023-02-28T10:24:35;4.45;;;1.63;;
76107;SDS011;64834;52.516;10.528;2023-02-28T10:27:12;5.40;;;1.67;;
76107;SDS011;64834;52.516;10.528;2023-02-28T10:29:38;2.45;;;0.70;;
76107;SDS011;64834;52.516;10.528;2023-02-28T10:32:06;3.58;;;1.13;;
76107;SDS011;64834;52.516;10.528;2023-02-28T10:34:32;2.05;;;0.95;;
76107;SDS011;64834;52.516;10.528;2023-02-28T10:36:58;2.28;;;1.20;;
76107;SDS011;64834;52.516;10.528;2023-02-28T10:39:36;2.45;;;1.17;;
76107;SDS011;64834;52.516;10.528;2023-02-28T10:42:04;4.20;;;1.73;;
76107;SDS011;64834;52.516;10.528;2023-02-28T10:44:29;2.00;;;1.30;;
76107;SDS011;64834;52.516;10.528;2023-02-28T10:46:54;3.17;;;1.42;;
76107;SDS011;64834;52.516;10.528;2023-02-28T10:49:25;3.33;;;1.35;;
76107;SDS011;64834;52.516;10.528;2023-02-28T10:51:54;2.22;;;1.10;;
76107;SDS011;64834;52.516;10.528;2023-02-28T10:54:23;3.15;;;1.50;;
76107;SDS011;64834;52.516;10.528;2023-02-28T10:59:51;4.50;;;1.45;;
76107;SDS011;64834;52.516;10.528;2023-02-28T11:05:20;3.70;;;1.98;;
76107;SDS011;64834;52.516;10.528;2023-02-28T11:07:52;2.65;;;0.98;;
76107;SDS011;64834;52.516;10.528;2023-02-28T11:10:20;3.72;;;1.20;;
76107;SDS011;64834;52.516;10.528;2023-02-28T11:12:49;4.80;;;1.42;;
76107;SDS011;64834;52.516;10.528;2023-02-28T11:17:49;2.47;;;0.70;;
76107;SDS011;64834;52.516;10.528;2023-02-28T11:20:21;1.60;;;0.95;;
76107;SDS011;64834;52.516;10.528;2023-02-28T11:22:49;1.90;;;0.98;;
76107;SDS011;64834;52.516;10.528;2023-02-28T11:25:21;2.30;;;1.00;;
76107;SDS011;64834;52.516;10.528;2023-02-28T11:27:53;5.93;;;1.98;;
76107;SDS011;64834;52.516;10.528;2023-02-28T11:30:40;1.42;;;0.80;;
76107;SDS011;64834;52.516;10.528;2023-02-28T11:34:10;3.20;;;0.98;;
76107;SDS011;64834;52.516;10.528;2023-02-28T11:36:15;3.67;;;1.55;;
76107;SDS011;64834;52.516;10.528;2023-02-28T11:38:46;3.78;;;1.30;;
76107;SDS011;64834;52.516;10.528;2023-02-28T11:41:17;3.08;;;1.40;;
76107;SDS011;64834;52.516;10.528;2023-02-28T11:44:10;5.10;;;1.95;;
76107;SDS011;64834;52.516;10.528;2023-02-28T11:46:50;4.63;;;1.58;;
76107;SDS011;64834;52.516;10.528;2023-02-28T11:52:32;2.50;;;1.50;;
76107;SDS011;64834;52.516;10.528;2023-02-28T11:55:11;3.38;;;1.60;;
76107;SDS011;64834;52.516;10.528;2023-02-28T11:57:49;3.13;;;1.98;;
76107;SDS011;64834;52.516;10.528;2023-02-28T12:06:06;4.25;;;2.70;;
76107;SDS011;64834;52.516;10.528;2023-02-28T12:11:51;5.85;;;2.50;;
76107;SDS011;64834;52.516;10.528;2023-02-28T12:16:49;3.43;;;1.90;;
76107;SDS011;64834;52.516;10.528;2023-02-28T12:22:19;3.75;;;1.77;;
76107;SDS011;64834;52.516;10.528;2023-02-28T12:27:34;3.75;;;2.20;;
76107;SDS011;64834;52.516;10.528;2023-02-28T12:35:23;5.93;;;2.20;;
76107;SDS011;64834;52.516;10.528;2023-02-28T12:44:01;3.05;;;2.15;;
76107;SDS011;64834;52.516;10.528;2023-02-28T12:46:41;3.42;;;2.53;;
76107;SDS011;64834;52.516;10.528;2023-02-28T12:49:10;4.40;;;2.47;;
76107;SDS011;64834;52.516;10.528;2023-02-28T12:51:41;3.17;;;2.10;;
76107;SDS011;64834;52.516;10.528;2023-02-28T12:54:18;3.20;;;2.08;;
76107;SDS011;64834;52.516;10.528;2023-02-28T12:57:04;3.50;;;2.10;;
76107;SDS011;64834;52.516;10.528;2023-02-28T13:02:40;3.35;;;2.05;;
76107;SDS011;64834;52.516;10.528;2023-02-28T13:06:05;5.20;;;2.40;;
76107;SDS011;64834;52.516;10.528;2023-02-28T13:11:42;5.47;;;2.80;;
76107;SDS011;64834;52.516;10.528;2023-02-28T13:17:09;4.82;;;3.05;;
76107;SDS011;64834;52.516;10.528;2023-02-28T13:19:38;6.10;;;3.28;;
76107;SDS011;64834;52.516;10.528;2023-02-28T13:25:02;3.67;;;2.15;;
76107;SDS011;64834;52.516;10.528;2023-02-28T13:27:57;4.00;;;2.65;;
76107;SDS011;64834;52.516;10.528;2023-02-28T13:38:37;5.18;;;2.83;;
76107;SDS011;64834;52.516;10.528;2023-02-28T13:46:26;4.60;;;2.88;;
76107;SDS011;64834;52.516;10.528;2023-02-28T13:48:51;3.35;;;1.77;;
76107;SDS011;64834;52.516;10.528;2023-02-28T13:51:38;6.20;;;2.67;;
76107;SDS011;64834;52.516;10.528;2023-02-28T14:02:47;2.97;;;1.65;;
76107;SDS011;64834;52.516;10.528;2023-02-28T14:05:35;2.80;;;1.80;;
76107;SDS011;64834;52.516;10.528;2023-02-28T14:08:08;9.60;;;3.42;;
76107;SDS011;64834;52.516;10.528;2023-02-28T14:13:13;4.90;;;1.85;;
76107;SDS011;64834;52.516;10.528;2023-02-28T14:15:40;6.10;;;2.00;;
76107;SDS011;64834;52.516;10.528;2023-02-28T14:18:15;3.17;;;1.92;;
76107;SDS011;64834;52.516;10.528;2023-02-28T14:23:40;2.85;;;1.65;;
76107;SDS011;64834;52.516;10.528;2023-02-28T14:26:16;3.95;;;1.83;;
76107;SDS011;64834;52.516;10.528;2023-02-28T14:28:58;3.83;;;1.90;;
76107;SDS011;64834;52.516;10.528;2023-02-28T14:34:52;3.72;;;1.88;;
76107;SDS011;64834;52.516;10.528;2023-02-28T14:37:27;3.53;;;1.55;;
76107;SDS011;64834;52.516;10.528;2023-02-28T14:39:55;2.92;;;1.30;;
76107;SDS011;64834;52.516;10.528;2023-02-28T14:42:29;3.90;;;1.80;;
76107;SDS011;64834;52.516;10.528;2023-02-28T14:44:57;5.68;;;2.33;;
76107;SDS011;64834;52.516;10.528;2023-02-28T14:47:23;5.90;;;2.63;;
76107;SDS011;64834;52.516;10.528;2023-02-28T14:49:52;2.63;;;1.95;;
76107;SDS011;64834;52.516;10.528;2023-02-28T14:52:20;4.18;;;2.40;;
76107;SDS011;64834;52.516;10.528;2023-02-28T14:55:23;5.03;;;1.98;;
76107;SDS011;64834;52.516;10.528;2023-02-28T14:57:43;6.13;;;2.50;;
76107;SDS011;64834;52.516;10.528;2023-02-28T15:02:46;4.93;;;1.52;;
76107;SDS011;64834;52.516;10.528;2023-02-28T15:07:46;6.40;;;3.10;;
76107;SDS011;64834;52.516;10.528;2023-02-28T15:12:41;4.50;;;2.80;;
76107;SDS011;64834;52.516;10.528;2023-02-28T15:15:21;4.22;;;2.20;;
76107;SDS011;64834;52.516;10.528;2023-02-28T15:17:51;4.53;;;2.38;;
76107;SDS011;64834;52.516;10.528;2023-02-28T15:20:21;7.55;;;2.72;;
76107;SDS011;64834;52.516;10.528;2023-02-28T15:22:49;4.63;;;2.17;;
76107;SDS011;64834;52.516;10.528;2023-02-28T15:25:18;4.15;;;2.95;;
76107;SDS011;64834;52.516;10.528;2023-02-28T15:27:47;3.60;;;2.17;;
76107;SDS011;64834;52.516;10.528;2023-02-28T15:30:16;3.72;;;2.08;;
76107;SDS011;64834;52.516;10.528;2023-02-28T15:32:44;3.92;;;2.22;;
76107;SDS011;64834;52.516;10.528;2023-02-28T15:38:23;6.28;;;3.30;;
76107;SDS011;64834;52.516;10.528;2023-02-28T15:40:56;13.23;;;4.78;;
76107;SDS011;64834;52.516;10.528;2023-02-28T15:45:55;5.93;;;2.83;;
76107;SDS011;64834;52.516;10.528;2023-02-28T15:51:17;6.35;;;2.60;;
76107;SDS011;64834;52.516;10.528;2023-02-28T15:53:59;6.50;;;2.88;;
76107;SDS011;64834;52.516;10.528;2023-02-28T15:56:27;5.78;;;3.75;;
76107;SDS011;64834;52.516;10.528;2023-02-28T15:58:56;3.42;;;2.38;;
76107;SDS011;64834;52.516;10.528;2023-02-28T16:01:29;4.45;;;2.10;;
76107;SDS011;64834;52.516;10.528;2023-02-28T16:04:07;5.47;;;2.83;;
76107;SDS011;64834;52.516;10.528;2023-02-28T16:06:43;4.63;;;2.40;;
76107;SDS011;64834;52.516;10.528;2023-02-28T16:09:11;4.78;;;2.35;;
76107;SDS011;64834;52.516;10.528;2023-02-28T16:11:40;4.97;;;2.00;;
76107;SDS011;64834;52.516;10.528;2023-02-28T16:14:18;4.72;;;2.20;;
76107;SDS011;64834;52.516;10.528;2023-02-28T16:16:48;3.80;;;2.42;;
76107;SDS011;64834;52.516;10.528;2023-02-28T16:19:16;5.22;;;2.35;;
76107;SDS011;64834;52.516;10.528;2023-02-28T16:21:42;5.22;;;2.58;;
76107;SDS011;64834;52.516;10.528;2023-02-28T16:24:07;20.67;;;10.73;;
76107;SDS011;64834;52.516;10.528;2023-02-28T16:26:33;7.97;;;4.07;;
76107;SDS011;64834;52.516;10.528;2023-02-28T16:28:59;4.90;;;3.08;;
76107;SDS011;64834;52.516;10.528;2023-02-28T16:31:26;5.20;;;3.03;;
76107;SDS011;64834;52.516;10.528;2023-02-28T16:33:52;6.10;;;2.50;;
76107;SDS011;64834;52.516;10.528;2023-02-28T16:36:19;6.18;;;2.97;;
76107;SDS011;64834;52.516;10.528;2023-02-28T16:38:46;7.70;;;4.32;;
76107;SDS011;64834;52.516;10.528;2023-02-28T16:41:16;8.95;;;4.50;;
76107;SDS011;64834;52.516;10.528;2023-02-28T16:43:44;8.30;;;4.43;;
76107;SDS011;64834;52.516;10.528;2023-02-28T16:46:15;5.82;;;4.13;;
76107;SDS011;64834;52.516;10.528;2023-02-28T16:48:41;7.03;;;2.80;;
76107;SDS011;64834;52.516;10.528;2023-02-28T16:51:14;6.13;;;3.45;;
76107;SDS011;64834;52.516;10.528;2023-02-28T16:53:40;7.35;;;3.40;;
76107;SDS011;64834;52.516;10.528;2023-02-28T16:56:06;5.50;;;3.33;;
76107;SDS011;64834;52.516;10.528;2023-02-28T16:58:39;4.90;;;3.20;;
76107;SDS011;64834;52.516;10.528;2023-02-28T17:01:04;5.57;;;3.00;;
76107;SDS011;64834;52.516;10.528;2023-02-28T17:03:29;14.02;;;7.10;;
76107;SDS011;64834;52.516;10.528;2023-02-28T17:05:55;13.70;;;6.30;;